Time;durP1;ratioP1;P1;durP2;ratioP2;P2;SDS_P1;SDS_P2;PMS_P1;PMS_P2;Temp;Humidity;BMP_temperature;BMP_pressure;BME280_temperature;BME280_humidity;BME280_pressure;Samples;Min_cycle;Max_cycle;Signal;HPM_P1;HPM_P2
2023/09/30 00:01:44;;;;;;;25.20;10.02;;;;;;;;;;5069432;28;20032;-60
2023/09/30 00:04:10;;;;;;;38.38;13.98;;;;;;;;;;5071682;28;20025;-60
2023/09/30 00:06:35;;;;;;;22.48;11.02;;;;;;;;;;5069787;28;20499;-64
2023/09/30 00:09:00;;;;;;;26.35;10.32;;;;;;;;;;5070678;28;20593;-61
2023/09/30 00:11:25;;;;;;;26.37;12.10;;;;;;;;;;5069970;28;20674;-61
2023/09/30 00:13:51;;;;;;;26.70;10.10;;;;;;;;;;5070937;28;20017;-61
2023/09/30 00:16:17;;;;;;;25.67;9.57;;;;;;;;;;5069744;28;20505;-61
2023/09/30 00:18:43;;;;;;;28.80;10.50;;;;;;;;;;5071120;28;20040;-63
2023/09/30 00:21:08;;;;;;;30.10;13.05;;;;;;;;;;5069331;28;20056;-61
2023/09/30 00:23:33;;;;;;;34.50;11.97;;;;;;;;;;5071005;28;20437;-61
2023/09/30 00:25:58;;;;;;;34.35;11.90;;;;;;;;;;5069430;28;20039;-61
2023/09/30 00:28:23;;;;;;;26.27;10.60;;;;;;;;;;5070661;28;20024;-61
2023/09/30 00:30:50;;;;;;;18.93;9.23;;;;;;;;;;5069111;28;20443;-61
2023/09/30 00:33:15;;;;;;;21.00;9.60;;;;;;;;;;5071121;28;20104;-61
2023/09/30 00:35:40;;;;;;;29.55;12.65;;;;;;;;;;5068873;28;20178;-61
2023/09/30 00:38:05;;;;;;;26.50;8.77;;;;;;;;;;5070635;28;20033;-61
2023/09/30 00:40:30;;;;;;;25.70;13.07;;;;;;;;;;5069340;28;20037;-62
2023/09/30 00:42:55;;;;;;;24.75;11.63;;;;;;;;;;5070112;28;20587;-63
2023/09/30 00:45:21;;;;;;;29.63;11.47;;;;;;;;;;5069133;28;20036;-61
2023/09/30 00:47:46;;;;;;;30.27;10.90;;;;;;;;;;5070480;28;20446;-61
2023/09/30 00:50:12;;;;;;;28.07;13.30;;;;;;;;;;5068850;28;20040;-61
2023/09/30 00:52:38;;;;;;;34.20;12.32;;;;;;;;;;5070316;28;20020;-61
2023/09/30 00:55:03;;;;;;;19.83;11.98;;;;;;;;;;5069465;28;20489;-71
2023/09/30 00:57:29;;;;;;;24.50;9.50;;;;;;;;;;5070077;28;20052;-63
2023/09/30 00:59:55;;;;;;;26.50;9.38;;;;;;;;;;5068552;28;20086;-61
2023/09/30 01:02:22;;;;;;;23.75;13.32;;;;;;;;;;5070269;28;20021;-60
2023/09/30 01:04:47;;;;;;;28.70;10.50;;;;;;;;;;5069831;28;20008;-60
2023/09/30 01:07:12;;;;;;;34.92;14.43;;;;;;;;;;5069136;28;20140;-59
2023/09/30 01:09:38;;;;;;;25.52;11.63;;;;;;;;;;5070187;28;20017;-60
2023/09/30 01:12:04;;;;;;;31.65;12.90;;;;;;;;;;5068523;28;20032;-59
2023/09/30 01:14:30;;;;;;;25.83;11.73;;;;;;;;;;5070560;28;20028;-60
2023/09/30 01:16:56;;;;;;;35.60;13.70;;;;;;;;;;5068661;28;20037;-60
2023/09/30 01:19:24;;;;;;;26.63;12.05;;;;;;;;;;5068823;28;20473;-60
2023/09/30 01:21:49;;;;;;;36.58;15.02;;;;;;;;;;5068167;28;20086;-60
2023/09/30 01:24:15;;;;;;;26.02;10.80;;;;;;;;;;5070403;28;20231;-59
2023/09/30 01:26:40;;;;;;;27.65;14.90;;;;;;;;;;5068028;28;20036;-59
2023/09/30 01:29:05;;;;;;;24.02;12.55;;;;;;;;;;5070074;28;20021;-59
2023/09/30 01:31:30;;;;;;;29.83;11.77;;;;;;;;;;5068812;28;20036;-60
2023/09/30 01:33:56;;;;;;;31.38;12.27;;;;;;;;;;5069426;28;20458;-59
2023/09/30 01:36:21;;;;;;;40.23;14.93;;;;;;;;;;5068457;28;20037;-59
2023/09/30 01:38:46;;;;;;;22.03;11.70;;;;;;;;;;5069970;28;20979;-59
2023/09/30 01:41:11;;;;;;;26.15;13.20;;;;;;;;;;5068043;28;20040;-59
2023/09/30 01:43:37;;;;;;;29.73;14.50;;;;;;;;;;5069754;28;20078;-59
2023/09/30 01:46:02;;;;;;;32.13;12.70;;;;;;;;;;5068762;28;20060;-60
2023/09/30 01:48:28;;;;;;;29.80;12.30;;;;;;;;;;5069090;28;20021;-59
2023/09/30 01:50:53;;;;;;;31.33;11.00;;;;;;;;;;5068333;28;20112;-60
2023/09/30 01:53:18;;;;;;;23.53;12.03;;;;;;;;;;5069951;28;20498;-60
2023/09/30 01:55:44;;;;;;;21.55;11.75;;;;;;;;;;5068001;28;20372;-60
2023/09/30 01:58:11;;;;;;;39.85;12.90;;;;;;;;;;5070130;28;20025;-60
2023/09/30 02:00:36;;;;;;;23.77;12.40;;;;;;;;;;5068374;28;20051;-60
2023/09/30 02:03:01;;;;;;;25.23;12.53;;;;;;;;;;5069250;28;20016;-60
2023/09/30 02:05:26;;;;;;;30.17;13.27;;;;;;;;;;5068534;28;20052;-60
2023/09/30 02:07:52;;;;;;;30.13;12.70;;;;;;;;;;5069653;28;20023;-60
2023/09/30 02:10:18;;;;;;;38.67;14.27;;;;;;;;;;5068281;28;20084;-60
2023/09/30 02:12:43;;;;;;;43.65;13.57;;;;;;;;;;5069706;28;20017;-61
2023/09/30 02:15:09;;;;;;;25.95;13.88;;;;;;;;;;5068281;28;20101;-61
2023/09/30 02:17:34;;;;;;;32.70;14.75;;;;;;;;;;5069598;28;20024;-58
2023/09/30 02:20:01;;;;;;;23.48;12.57;;;;;;;;;;5068238;28;20025;-64
2023/09/30 02:22:28;;;;;;;31.75;15.05;;;;;;;;;;5069361;28;20494;-60
2023/09/30 02:24:54;;;;;;;25.30;14.65;;;;;;;;;;5067816;28;20025;-60
2023/09/30 02:27:19;;;;;;;26.15;14.05;;;;;;;;;;5069376;28;20020;-60
2023/09/30 02:29:44;;;;;;;35.00;13.73;;;;;;;;;;5069299;28;20032;-60
2023/09/30 02:32:09;;;;;;;26.97;13.93;;;;;;;;;;5071210;28;20025;-60
2023/09/30 02:34:35;;;;;;;33.05;13.00;;;;;;;;;;5072741;28;20105;-60
2023/09/30 02:37:00;;;;;;;26.60;13.90;;;;;;;;;;5071320;28;20447;-60
2023/09/30 02:39:26;;;;;;;21.13;12.40;;;;;;;;;;5073386;28;20016;-60
2023/09/30 02:41:52;;;;;;;36.22;13.20;;;;;;;;;;5070629;28;20032;-59
2023/09/30 02:44:17;;;;;;;46.53;14.05;;;;;;;;;;5073047;28;20096;-59
2023/09/30 02:46:42;;;;;;;26.58;13.23;;;;;;;;;;5071109;28;20519;-62
2023/09/30 02:49:08;;;;;;;25.37;12.50;;;;;;;;;;5072696;28;20024;-60
2023/09/30 02:51:33;;;;;;;25.57;13.47;;;;;;;;;;5071431;28;20035;-60
2023/09/30 02:53:58;;;;;;;22.70;12.90;;;;;;;;;;5072564;28;20417;-64
2023/09/30 02:56:24;;;;;;;29.20;13.07;;;;;;;;;;5070985;28;20455;-60
2023/09/30 02:58:51;;;;;;;30.95;14.27;;;;;;;;;;5072403;28;20032;-59
2023/09/30 03:01:16;;;;;;;29.13;13.52;;;;;;;;;;5071197;28;20055;-59
2023/09/30 03:03:43;;;;;;;28.15;13.60;;;;;;;;;;5072136;28;20463;-60
2023/09/30 03:06:10;;;;;;;29.48;13.85;;;;;;;;;;5071223;28;20029;-60
2023/09/30 03:08:35;;;;;;;29.75;12.07;;;;;;;;;;5072754;28;20577;-59
2023/09/30 03:11:01;;;;;;;36.97;16.40;;;;;;;;;;5070474;28;20055;-61
2023/09/30 03:13:27;;;;;;;35.58;16.20;;;;;;;;;;5072654;28;20019;-60
2023/09/30 03:15:52;;;;;;;39.87;16.07;;;;;;;;;;5070926;28;20029;-61
2023/09/30 03:18:17;;;;;;;35.03;16.23;;;;;;;;;;5070436;28;20455;-60
2023/09/30 03:20:43;;;;;;;31.58;14.93;;;;;;;;;;5070681;28;20039;-61
2023/09/30 03:23:08;;;;;;;32.95;15.63;;;;;;;;;;5072432;28;20024;-72
2023/09/30 03:25:33;;;;;;;30.00;16.90;;;;;;;;;;5070585;28;20119;-61
2023/09/30 03:27:58;;;;;;;28.30;15.27;;;;;;;;;;5070316;28;20495;-70
2023/09/30 03:30:24;;;;;;;24.80;15.10;;;;;;;;;;5070653;28;20470;-60
2023/09/30 03:32:49;;;;;;;37.45;18.55;;;;;;;;;;5071738;28;20024;-60
2023/09/30 03:35:17;;;;;;;24.63;16.60;;;;;;;;;;5070457;28;20067;-59
2023/09/30 03:37:46;;;;;;;36.70;16.50;;;;;;;;;;5071893;28;20016;-58
2023/09/30 03:40:14;;;;;;;28.88;15.50;;;;;;;;;;5070337;28;20020;-60
2023/09/30 03:42:40;;;;;;;27.98;12.30;;;;;;;;;;5070664;28;20028;-60
2023/09/30 03:45:07;;;;;;;28.25;15.32;;;;;;;;;;5070537;28;20020;-59
2023/09/30 03:47:32;;;;;;;27.13;15.27;;;;;;;;;;5071373;28;20016;-60
2023/09/30 03:49:58;;;;;;;26.58;13.40;;;;;;;;;;5070293;28;20434;-60
2023/09/30 03:52:25;;;;;;;26.25;15.60;;;;;;;;;;5071970;28;20436;-60
2023/09/30 03:54:50;;;;;;;28.48;14.98;;;;;;;;;;5071092;28;20376;-60
2023/09/30 03:57:16;;;;;;;29.88;15.70;;;;;;;;;;5070073;28;20033;-60
2023/09/30 03:59:41;;;;;;;26.58;15.13;;;;;;;;;;5069604;28;20016;-59
2023/09/30 04:02:07;;;;;;;25.23;16.83;;;;;;;;;;5069416;28;20098;-61
2023/09/30 04:04:34;;;;;;;27.83;15.32;;;;;;;;;;5071428;28;20040;-59
2023/09/30 04:06:59;;;;;;;26.77;12.70;;;;;;;;;;5069709;28;20024;-60
2023/09/30 04:09:25;;;;;;;32.85;16.00;;;;;;;;;;5070771;28;20024;-60
2023/09/30 04:11:50;;;;;;;30.15;15.48;;;;;;;;;;5069646;28;20081;-66
2023/09/30 04:14:17;;;;;;;40.13;17.50;;;;;;;;;;5070418;28;20016;-59
2023/09/30 04:16:42;;;;;;;30.58;17.65;;;;;;;;;;5068185;28;20502;-58
2023/09/30 04:19:09;;;;;;;38.47;18.70;;;;;;;;;;5069765;28;20032;-59
2023/09/30 04:21:35;;;;;;;38.83;18.88;;;;;;;;;;5068152;28;20075;-59
2023/09/30 04:24:00;;;;;;;38.07;19.20;;;;;;;;;;5069495;28;20101;-58
2023/09/30 04:26:25;;;;;;;37.22;19.15;;;;;;;;;;5069669;28;20047;-58
2023/09/30 04:28:51;;;;;;;35.75;18.60;;;;;;;;;;5069328;28;20013;-58
2023/09/30 04:31:16;;;;;;;25.50;16.95;;;;;;;;;;5068967;28;20036;-58
2023/09/30 04:33:42;;;;;;;37.95;19.92;;;;;;;;;;5070488;28;20052;-58
2023/09/30 04:36:09;;;;;;;37.17;21.00;;;;;;;;;;5069415;28;20032;-59
2023/09/30 04:38:34;;;;;;;35.67;21.00;;;;;;;;;;5070404;28;20434;-59
2023/09/30 04:41:00;;;;;;;32.10;17.02;;;;;;;;;;5068923;28;20036;-59
2023/09/30 04:43:29;;;;;;;32.47;17.58;;;;;;;;;;5070042;28;20563;-58
2023/09/30 04:45:56;;;;;;;31.27;17.55;;;;;;;;;;5068535;28;20115;-58
2023/09/30 04:48:22;;;;;;;28.80;20.52;;;;;;;;;;5070964;28;20379;-58
2023/09/30 04:50:47;;;;;;;26.75;17.40;;;;;;;;;;5068398;28;20036;-58
2023/09/30 04:53:13;;;;;;;28.80;19.10;;;;;;;;;;5069599;28;20525;-58
2023/09/30 04:55:38;;;;;;;32.15;18.15;;;;;;;;;;5064340;28;20033;-59
2023/09/30 04:58:04;;;;;;;33.80;18.98;;;;;;;;;;5070149;28;20031;-58
2023/09/30 05:00:30;;;;;;;33.90;20.50;;;;;;;;;;5068039;28;20040;-58
2023/09/30 05:02:55;;;;;;;49.03;22.67;;;;;;;;;;5068938;28;20428;-59
2023/09/30 05:05:21;;;;;;;42.35;23.08;;;;;;;;;;5068518;28;20660;-59
2023/09/30 05:07:49;;;;;;;44.42;24.85;;;;;;;;;;5068071;28;20020;-59
2023/09/30 05:10:16;;;;;;;52.47;21.35;;;;;;;;;;5056197;28;20047;-59
2023/09/30 05:12:47;;;;;;;45.20;21.95;;;;;;;;;;5069713;28;20013;-59
2023/09/30 05:15:13;;;;;;;41.35;24.75;;;;;;;;;;5067246;28;20025;-59
2023/09/30 05:17:39;;;;;;;46.90;23.15;;;;;;;;;;5068428;28;20032;-60
2023/09/30 05:20:06;;;;;;;58.15;26.63;;;;;;;;;;5068287;28;20483;-68
2023/09/30 05:22:32;;;;;;;39.77;23.57;;;;;;;;;;5067731;28;20044;-62
2023/09/30 05:24:57;;;;;;;34.88;21.90;;;;;;;;;;5066470;28;20960;-61
2023/09/30 05:27:22;;;;;;;36.47;23.40;;;;;;;;;;5068744;28;20021;-61
2023/09/30 05:29:48;;;;;;;39.05;21.98;;;;;;;;;;5069748;28;20088;-59
2023/09/30 05:32:14;;;;;;;59.63;25.42;;;;;;;;;;5066878;28;20403;-58
2023/09/30 05:34:39;;;;;;;43.45;24.17;;;;;;;;;;5069105;28;20098;-58
2023/09/30 05:37:04;;;;;;;39.23;22.97;;;;;;;;;;5067780;28;20029;-58
2023/09/30 05:39:31;;;;;;;39.83;21.80;;;;;;;;;;5068377;28;20099;-57
2023/09/30 05:41:56;;;;;;;45.90;22.02;;;;;;;;;;5067675;28;21420;-58
2023/09/30 05:44:22;;;;;;;43.50;25.75;;;;;;;;;;5068994;28;20060;-58
2023/09/30 05:46:47;;;;;;;39.50;26.35;;;;;;;;;;5065720;28;20380;-59
2023/09/30 05:49:13;;;;;;;40.47;20.85;;;;;;;;;;5069987;28;20009;-59
2023/09/30 05:51:42;;;;;;;48.08;25.90;;;;;;;;;;5067531;28;20203;-62
2023/09/30 05:54:09;;;;;;;42.08;23.02;;;;;;;;;;5068454;28;20115;-61
2023/09/30 05:56:34;;;;;;;37.60;22.27;;;;;;;;;;5067838;28;20029;-60
2023/09/30 05:59:00;;;;;;;38.00;21.45;;;;;;;;;;5069254;28;20034;-70
2023/09/30 06:01:25;;;;;;;38.83;23.97;;;;;;;;;;5065890;28;20043;-58
2023/09/30 06:03:50;;;;;;;42.47;23.33;;;;;;;;;;5068900;28;20124;-58
2023/09/30 06:06:16;;;;;;;37.25;22.23;;;;;;;;;;5067925;28;20466;-58
2023/09/30 06:08:47;;;;;;;38.00;21.48;;;;;;;;;;5070658;28;20052;-58
2023/09/30 06:11:19;;;;;;;34.95;20.80;;;;;;;;;;5061207;28;20424;-58
2023/09/30 06:13:44;;;;;;;40.72;24.50;;;;;;;;;;5053253;28;20088;-58
2023/09/30 06:16:11;;;;;;;46.25;24.52;;;;;;;;;;5045006;28;20159;-58
2023/09/30 06:18:36;;;;;;;37.60;26.75;;;;;;;;;;5053004;28;20058;-59
2023/09/30 06:21:01;;;;;;;40.33;23.75;;;;;;;;;;5054161;28;20123;-59
2023/09/30 06:23:29;;;;;;;38.83;23.85;;;;;;;;;;5072375;28;20032;-59
2023/09/30 06:25:55;;;;;;;36.47;21.88;;;;;;;;;;5071080;28;20518;-68
2023/09/30 06:28:25;;;;;;;48.53;24.67;;;;;;;;;;5073390;28;20371;-57
2023/09/30 06:30:51;;;;;;;42.42;23.98;;;;;;;;;;5070846;28;20157;-57
2023/09/30 06:33:16;;;;;;;46.13;25.63;;;;;;;;;;5072607;28;20024;-57
2023/09/30 06:35:50;;;;;;;44.53;25.63;;;;;;;;;;5065869;28;20053;-57
2023/09/30 06:38:15;;;;;;;41.33;24.67;;;;;;;;;;5052593;28;20040;-57
2023/09/30 06:40:42;;;;;;;35.70;21.70;;;;;;;;;;5056721;28;20109;-62
2023/09/30 06:43:08;;;;;;;42.58;22.88;;;;;;;;;;5072771;28;20366;-57
2023/09/30 06:45:33;;;;;;;43.80;24.52;;;;;;;;;;5070771;28;20040;-57
2023/09/30 06:47:58;;;;;;;38.60;24.97;;;;;;;;;;5072665;28;20012;-57
2023/09/30 06:50:23;;;;;;;56.25;25.63;;;;;;;;;;5069948;28;20437;-57
2023/09/30 06:52:51;;;;;;;41.47;27.27;;;;;;;;;;5071191;28;20025;-57
2023/09/30 06:55:16;;;;;;;37.58;26.67;;;;;;;;;;5069669;28;20809;-57
2023/09/30 06:57:42;;;;;;;43.17;26.10;;;;;;;;;;5072169;28;20024;-58
2023/09/30 07:00:11;;;;;;;42.63;27.17;;;;;;;;;;5069033;28;20425;-58
2023/09/30 07:02:37;;;;;;;46.88;28.73;;;;;;;;;;5068341;28;20077;-58
2023/09/30 07:05:12;;;;;;;38.47;26.65;;;;;;;;;;5057876;28;20020;-58
2023/09/30 07:07:37;;;;;;;43.75;25.42;;;;;;;;;;5049966;28;20017;-58
2023/09/30 07:10:04;;;;;;;39.67;26.27;;;;;;;;;;5056362;28;20585;-58
2023/09/30 07:12:30;;;;;;;47.40;29.63;;;;;;;;;;5067447;28;20021;-58
2023/09/30 07:14:55;;;;;;;36.70;24.45;;;;;;;;;;5051741;28;20032;-58
2023/09/30 07:17:21;;;;;;;44.85;26.52;;;;;;;;;;5062845;28;20033;-58
2023/09/30 07:19:46;;;;;;;41.75;23.83;;;;;;;;;;5065038;28;20475;-58
2023/09/30 07:22:11;;;;;;;29.05;23.38;;;;;;;;;;5069491;28;20097;-59
2023/09/30 07:24:36;;;;;;;35.80;24.73;;;;;;;;;;5071401;28;20370;-58
2023/09/30 07:27:02;;;;;;;37.15;21.52;;;;;;;;;;5069461;28;20028;-58
2023/09/30 07:29:27;;;;;;;24.00;20.05;;;;;;;;;;5071113;28;20012;-58
2023/09/30 07:31:52;;;;;;;30.10;20.83;;;;;;;;;;5060919;28;20033;-58
2023/09/30 07:34:17;;;;;;;32.77;20.23;;;;;;;;;;5062287;28;20041;-57
2023/09/30 07:36:42;;;;;;;41.03;21.38;;;;;;;;;;5063194;28;20447;-58
2023/09/30 07:39:08;;;;;;;25.92;21.65;;;;;;;;;;5070676;28;20025;-69
2023/09/30 07:41:39;;;;;;;24.77;18.97;;;;;;;;;;5060830;28;20524;-58
2023/09/30 07:44:05;;;;;;;25.95;17.75;;;;;;;;;;5050057;28;20030;-59
2023/09/30 07:46:30;;;;;;;24.02;17.92;;;;;;;;;;5049048;28;20171;-58
2023/09/30 07:48:55;;;;;;;20.13;17.48;;;;;;;;;;5057550;28;20039;-58
2023/09/30 07:51:20;;;;;;;26.27;15.60;;;;;;;;;;5066707;28;20636;-58
2023/09/30 07:53:45;;;;;;;28.10;17.37;;;;;;;;;;5069511;28;20028;-58
2023/09/30 07:56:11;;;;;;;17.77;14.93;;;;;;;;;;5068760;28;20407;-58
2023/09/30 07:58:36;;;;;;;30.08;17.75;;;;;;;;;;5067079;28;20108;-61
2023/09/30 08:01:03;;;;;;;27.75;16.88;;;;;;;;;;5066927;28;20049;-58
2023/09/30 08:03:28;;;;;;;19.67;14.68;;;;;;;;;;5070430;28;20416;-58
2023/09/30 08:05:53;;;;;;;21.52;15.68;;;;;;;;;;5060215;28;20052;-57
2023/09/30 08:08:18;;;;;;;24.17;13.48;;;;;;;;;;5050470;28;20044;-58
2023/09/30 08:10:44;;;;;;;20.88;15.55;;;;;;;;;;5048200;28;20037;-58
2023/09/30 08:13:09;;;;;;;18.40;13.85;;;;;;;;;;5046084;28;20048;-64
2023/09/30 08:15:35;;;;;;;22.52;15.82;;;;;;;;;;5050844;28;20124;-58
2023/09/30 08:18:01;;;;;;;17.40;12.38;;;;;;;;;;5052955;28;20096;-58
2023/09/30 08:20:26;;;;;;;16.65;12.15;;;;;;;;;;5054372;28;20570;-58
2023/09/30 08:22:51;;;;;;;14.00;11.70;;;;;;;;;;5060568;28;20035;-58
2023/09/30 08:25:16;;;;;;;18.00;12.13;;;;;;;;;;5063903;28;20119;-58
2023/09/30 08:27:42;;;;;;;19.70;11.50;;;;;;;;;;5050537;28;20531;-58
2023/09/30 08:30:07;;;;;;;18.90;11.95;;;;;;;;;;5053505;28;20020;-59
2023/09/30 08:32:33;;;;;;;16.45;13.48;;;;;;;;;;5069768;28;20056;-58
2023/09/30 08:34:58;;;;;;;14.45;12.20;;;;;;;;;;5015407;28;1326327;-60
2023/09/30 08:37:24;;;;;;;14.10;10.32;;;;;;;;;;5050789;28;20091;-58
2023/09/30 08:39:50;;;;;;;15.40;11.45;;;;;;;;;;5050239;28;20059;-58
2023/09/30 08:42:18;;;;;;;18.70;10.05;;;;;;;;;;5067477;28;20045;-59
2023/09/30 08:44:44;;;;;;;18.23;11.90;;;;;;;;;;5068574;28;20012;-59
2023/09/30 08:47:09;;;;;;;16.00;12.13;;;;;;;;;;5068489;28;20047;-60
2023/09/30 08:49:38;;;;;;;16.88;11.05;;;;;;;;;;5070195;28;20013;-58
2023/09/30 08:52:03;;;;;;;;;;;;;;;;;;5069026;28;20387;-58
2023/09/30 08:54:28;;;;;;;14.13;10.65;;;;;;;;;;5069965;28;20231;-58
2023/09/30 08:56:53;;;;;;;17.73;10.40;;;;;;;;;;5068154;28;20483;-59
2023/09/30 08:59:19;;;;;;;14.07;9.40;;;;;;;;;;5069421;28;20585;-62
2023/09/30 09:01:44;;;;;;;13.18;9.80;;;;;;;;;;5068302;28;20036;-59
2023/09/30 09:04:09;;;;;;;13.33;8.97;;;;;;;;;;5070015;28;20028;-59
2023/09/30 09:06:34;;;;;;;16.53;9.43;;;;;;;;;;5068176;28;20036;-59
2023/09/30 09:09:16;;;;;;;15.07;9.67;;;;;;;;;;5069642;28;20430;-58
2023/09/30 09:11:42;;;;;;;12.98;9.65;;;;;;;;;;5068370;28;20036;-59
2023/09/30 09:14:07;;;;;;;14.00;9.02;;;;;;;;;;5069364;28;20024;-59
2023/09/30 09:16:32;;;;;;;18.13;10.38;;;;;;;;;;5067803;28;20040;-58
2023/09/30 09:18:57;;;;;;;15.05;10.85;;;;;;;;;;5067801;28;20502;-59
2023/09/30 09:21:22;;;;;;;15.60;8.57;;;;;;;;;;5065808;28;20128;-59
2023/09/30 09:23:48;;;;;;;13.38;8.10;;;;;;;;;;5049999;28;20051;-72
2023/09/30 09:26:24;;;;;;;18.10;11.07;;;;;;;;;;5060879;28;20055;-58
2023/09/30 09:28:49;;;;;;;14.77;10.82;;;;;;;;;;5067530;28;20078;-59
2023/09/30 09:31:21;;;;;;;13.65;9.18;;;;;;;;;;5068134;28;20033;-59
2023/09/30 09:33:47;;;;;;;12.43;8.52;;;;;;;;;;5059485;28;20067;-59
2023/09/30 09:36:12;;;;;;;11.93;8.57;;;;;;;;;;5061450;28;20041;-59
2023/09/30 09:38:43;;;;;;;14.60;8.13;;;;;;;;;;5069604;28;20024;-59
2023/09/30 09:41:08;;;;;;;18.40;7.78;;;;;;;;;;5069932;28;20040;-59
2023/09/30 09:43:35;;;;;;;12.75;8.52;;;;;;;;;;5073392;28;20024;-58
2023/09/30 09:46:03;;;;;;;15.45;8.57;;;;;;;;;;5071155;28;20024;-58
2023/09/30 09:48:28;;;;;;;;;;;;;;;;;;5074568;28;20115;-58
2023/09/30 09:50:53;;;;;;;13.13;9.13;;;;;;;;;;5071718;28;19995;-58
2023/09/30 09:53:20;;;;;;;16.97;7.60;;;;;;;;;;5073841;28;20032;-59
2023/09/30 09:55:45;;;;;;;11.50;8.00;;;;;;;;;;5070606;28;20537;-58
2023/09/30 09:58:12;;;;;;;13.02;8.52;;;;;;;;;;5065079;28;20100;-60
2023/09/30 10:00:38;;;;;;;13.98;8.50;;;;;;;;;;5051650;28;20045;-58
2023/09/30 10:03:03;;;;;;;14.82;8.32;;;;;;;;;;5053420;28;20043;-71
2023/09/30 10:05:29;;;;;;;13.40;9.50;;;;;;;;;;5065067;28;20051;-59
2023/09/30 10:07:56;;;;;;;17.30;9.75;;;;;;;;;;5073655;28;20021;-59
2023/09/30 10:10:22;;;;;;;11.98;7.10;;;;;;;;;;5059486;28;20040;-59
2023/09/30 10:12:47;;;;;;;15.27;8.27;;;;;;;;;;5072871;28;20372;-59
2023/09/30 10:15:27;;;;;;;18.25;9.32;;;;;;;;;;5072329;28;20033;-59
2023/09/30 10:17:58;;;;;;;14.50;7.53;;;;;;;;;;5073056;28;20067;-59
2023/09/30 10:20:27;;;;;;;15.63;8.95;;;;;;;;;;5066502;28;20422;-58
2023/09/30 10:23:13;;;;;;;13.75;7.90;;;;;;;;;;5054401;28;20032;-59
2023/09/30 10:25:40;;;;;;;12.82;8.95;;;;;;;;;;5057895;28;20037;-58
2023/09/30 10:28:24;;;;;;;12.30;7.93;;;;;;;;;;5072509;28;20131;-58
2023/09/30 10:31:08;;;;;;;15.68;8.45;;;;;;;;;;5069585;28;20060;-59
2023/09/30 10:33:33;;;;;;;10.73;7.38;;;;;;;;;;5072636;28;20396;-59
2023/09/30 10:35:59;;;;;;;10.05;6.68;;;;;;;;;;5070915;28;20047;-59
2023/09/30 10:38:25;;;;;;;14.40;5.80;;;;;;;;;;5071860;28;20024;-59
2023/09/30 10:40:50;;;;;;;10.27;6.10;;;;;;;;;;5071242;28;20029;-59
2023/09/30 10:43:35;;;;;;;14.38;5.95;;;;;;;;;;5073069;28;20032;-59
2023/09/30 10:46:01;;;;;;;11.32;5.35;;;;;;;;;;5071641;28;20036;-59
2023/09/30 10:48:31;;;;;;;12.65;6.18;;;;;;;;;;5073057;28;20025;-58
2023/09/30 10:51:01;;;;;;;11.02;5.45;;;;;;;;;;5071562;28;20036;-59
2023/09/30 10:53:30;;;;;;;14.27;6.45;;;;;;;;;;5073034;28;20028;-59
2023/09/30 10:55:57;;;;;;;10.77;5.55;;;;;;;;;;5070841;28;20329;-58
2023/09/30 10:58:38;;;;;;;12.90;5.80;;;;;;;;;;5073032;28;20069;-58
2023/09/30 11:01:04;;;;;;;14.80;5.40;;;;;;;;;;5071525;28;20032;-59
2023/09/30 11:03:29;;;;;;;14.85;6.97;;;;;;;;;;5072181;28;20506;-58
2023/09/30 11:05:54;;;;;;;8.27;4.37;;;;;;;;;;5071309;28;20032;-59
2023/09/30 11:08:22;;;;;;;8.50;4.15;;;;;;;;;;5072624;28;20031;-58
2023/09/30 11:10:48;;;;;;;9.95;4.85;;;;;;;;;;5070577;28;20421;-58
2023/09/30 11:13:14;;;;;;;12.48;5.20;;;;;;;;;;5072765;28;20020;-59
2023/09/30 11:15:40;;;;;;;10.68;5.22;;;;;;;;;;5069397;28;20064;-59
2023/09/30 11:18:15;;;;;;;13.43;4.20;;;;;;;;;;5072234;28;20601;-59
2023/09/30 11:20:41;;;;;;;6.15;4.03;;;;;;;;;;5069253;28;20450;-59
2023/09/30 11:23:06;;;;;;;8.55;4.78;;;;;;;;;;5060036;28;20052;-58
2023/09/30 11:25:35;;;;;;;11.27;4.40;;;;;;;;;;5053679;28;20044;-58
2023/09/30 11:28:19;;;;;;;8.23;4.80;;;;;;;;;;5071904;28;20093;-59
2023/09/30 11:30:53;;;;;;;20.15;5.47;;;;;;;;;;5069938;28;20510;-58
2023/09/30 11:33:19;;;;;;;14.43;3.92;;;;;;;;;;5070752;28;20017;-58
2023/09/30 11:35:55;;;;;;;19.20;5.97;;;;;;;;;;5070186;28;20040;-58
2023/09/30 11:38:20;;;;;;;11.90;5.35;;;;;;;;;;5070703;28;20029;-58
2023/09/30 11:41:05;;;;;;;21.05;4.30;;;;;;;;;;5070075;28;20043;-58
2023/09/30 11:43:30;;;;;;;9.15;4.43;;;;;;;;;;5072054;28;20069;-58
2023/09/30 11:46:08;;;;;;;9.77;4.18;;;;;;;;;;5070139;28;20119;-58
2023/09/30 11:48:33;;;;;;;;;;;;;;;;;;5072147;28;20008;-58
2023/09/30 11:51:00;;;;;;;10.80;3.55;;;;;;;;;;5070208;28;19920;-58
2023/09/30 11:53:25;;;;;;;19.20;5.65;;;;;;;;;;5071973;28;20024;-58
2023/09/30 11:55:50;;;;;;;13.17;5.83;;;;;;;;;;5069766;28;20539;-58
2023/09/30 11:58:18;;;;;;;9.60;4.80;;;;;;;;;;5071494;28;20029;-58
2023/09/30 12:00:43;;;;;;;13.52;5.50;;;;;;;;;;5069598;28;20042;-58
2023/09/30 12:03:10;;;;;;;12.02;5.07;;;;;;;;;;5070459;28;20103;-58
2023/09/30 12:05:36;;;;;;;12.38;4.65;;;;;;;;;;5069989;28;20037;-63
2023/09/30 12:08:01;;;;;;;12.48;4.05;;;;;;;;;;5070659;28;20096;-58
2023/09/30 12:10:27;;;;;;;11.25;4.85;;;;;;;;;;5067854;28;20049;-58
2023/09/30 12:12:52;;;;;;;9.53;4.80;;;;;;;;;;5071318;28;20394;-58
2023/09/30 12:15:18;;;;;;;11.07;4.10;;;;;;;;;;5068440;28;20036;-58
2023/09/30 12:17:43;;;;;;;8.73;5.63;;;;;;;;;;5062926;28;20416;-58
2023/09/30 12:20:08;;;;;;;8.98;5.07;;;;;;;;;;5066427;28;20048;-61
2023/09/30 12:22:34;;;;;;;7.80;4.45;;;;;;;;;;5070896;28;20164;-58
2023/09/30 12:25:00;;;;;;;13.07;4.07;;;;;;;;;;5061746;28;20552;-58
2023/09/30 12:27:25;;;;;;;14.25;5.68;;;;;;;;;;5071522;28;20032;-58
2023/09/30 12:29:51;;;;;;;9.68;4.38;;;;;;;;;;5061772;28;20399;-58
2023/09/30 12:32:16;;;;;;;13.43;4.60;;;;;;;;;;5049638;28;20064;-59
2023/09/30 12:34:42;;;;;;;13.77;4.85;;;;;;;;;;5050498;28;20484;-58
2023/09/30 12:37:07;;;;;;;6.43;4.17;;;;;;;;;;5049585;28;20037;-58
2023/09/30 12:39:33;;;;;;;10.05;4.38;;;;;;;;;;5050311;28;20047;-58
2023/09/30 12:41:58;;;;;;;11.90;3.55;;;;;;;;;;5048872;28;20037;-65
2023/09/30 12:44:23;;;;;;;9.07;4.90;;;;;;;;;;5050962;28;20013;-58
2023/09/30 12:46:48;;;;;;;6.47;3.60;;;;;;;;;;5048895;28;20447;-58
2023/09/30 12:49:13;;;;;;;10.13;4.97;;;;;;;;;;5050870;28;20415;-59
2023/09/30 12:51:39;;;;;;;8.67;3.87;;;;;;;;;;5049035;28;20452;-59
2023/09/30 12:54:04;;;;;;;8.27;3.87;;;;;;;;;;5050649;28;20432;-58
2023/09/30 12:56:29;;;;;;;7.50;4.07;;;;;;;;;;5049478;28;20455;-60
2023/09/30 12:58:55;;;;;;;9.52;2.83;;;;;;;;;;5050414;28;20484;-58
2023/09/30 13:01:21;;;;;;;8.13;3.53;;;;;;;;;;5046670;28;20029;-58
2023/09/30 13:03:46;;;;;;;11.00;3.55;;;;;;;;;;5069206;28;20024;-58
2023/09/30 13:06:11;;;;;;;9.05;3.30;;;;;;;;;;5068933;28;20509;-73
2023/09/30 13:08:36;;;;;;;18.47;3.53;;;;;;;;;;5070850;28;20036;-58
2023/09/30 13:11:02;;;;;;;6.82;3.30;;;;;;;;;;5068554;28;20566;-58
2023/09/30 13:13:28;;;;;;;9.07;3.55;;;;;;;;;;5070460;28;20025;-58
2023/09/30 13:15:53;;;;;;;13.27;4.40;;;;;;;;;;5068976;28;20302;-58
2023/09/30 13:18:19;;;;;;;12.52;4.70;;;;;;;;;;5070136;28;20130;-67
2023/09/30 13:20:44;;;;;;;13.70;5.73;;;;;;;;;;5068876;28;20041;-59
2023/09/30 13:23:09;;;;;;;8.88;4.03;;;;;;;;;;5070033;28;20032;-59
2023/09/30 13:25:34;;;;;;;8.60;5.45;;;;;;;;;;5068901;28;20033;-60
2023/09/30 13:27:59;;;;;;;8.40;3.92;;;;;;;;;;5070151;28;20016;-58
2023/09/30 13:30:25;;;;;;;12.17;5.10;;;;;;;;;;5068989;28;20329;-58
2023/09/30 13:32:50;;;;;;;7.90;3.57;;;;;;;;;;5069531;28;20069;-61
2023/09/30 13:35:15;;;;;;;10.80;3.88;;;;;;;;;;5068688;28;21053;-58
2023/09/30 13:37:40;;;;;;;8.50;4.70;;;;;;;;;;5069792;28;20023;-58
2023/09/30 13:40:08;;;;;;;17.35;4.05;;;;;;;;;;5068302;28;20434;-58
2023/09/30 13:42:33;;;;;;;4.60;3.53;;;;;;;;;;5070059;28;20024;-58
2023/09/30 13:44:58;;;;;;;8.88;4.60;;;;;;;;;;5068676;28;20013;-58
2023/09/30 13:47:26;;;;;;;11.20;3.40;;;;;;;;;;5069969;28;20092;-59
2023/09/30 13:49:52;;;;;;;5.43;3.63;;;;;;;;;;5069801;28;20456;-58
2023/09/30 13:52:17;;;;;;;7.72;3.88;;;;;;;;;;5067486;28;20127;-58
2023/09/30 13:54:42;;;;;;;12.20;4.00;;;;;;;;;;5069451;28;20012;-60
2023/09/30 13:57:07;;;;;;;15.03;3.80;;;;;;;;;;5068136;28;20037;-58
2023/09/30 13:59:36;;;;;;;16.73;4.30;;;;;;;;;;5070095;28;20029;-58
2023/09/30 14:02:05;;;;;;;12.60;4.35;;;;;;;;;;5067874;28;20044;-58
2023/09/30 14:04:31;;;;;;;9.82;4.70;;;;;;;;;;5068884;28;20555;-58
2023/09/30 14:06:57;;;;;;;10.43;4.15;;;;;;;;;;5068171;28;20059;-58
2023/09/30 14:09:22;;;;;;;6.95;4.45;;;;;;;;;;5069576;28;20013;-58
2023/09/30 14:11:47;;;;;;;7.68;2.95;;;;;;;;;;5068162;28;20037;-58
2023/09/30 14:14:13;;;;;;;10.38;3.08;;;;;;;;;;5070220;28;20436;-66
2023/09/30 14:16:38;;;;;;;14.40;5.60;;;;;;;;;;5067948;28;20032;-58
2023/09/30 14:19:03;;;;;;;15.43;3.95;;;;;;;;;;5048489;28;20376;-58